RJOA/HIJ METAR and TAF weather

Enter ICAO airport designator
Station Type Date Time Source
RJOA METAR 2022/07/01 02:33 UTC NOAA

RJOA 010233Z 12006KT 060V200 9999 FEW030 32/24 Q1017 RMK 1CU030 A3005


Station Type Date Time Source
RJOA Decoded METAR 2022/07/01 02:33 UTC NOAA

Hiroshima Airport, Japan (RJOA) 34-26N 132-55E 334M
Jun 30, 2022 - 10:33 PM EDT / 2022.07.01 0233 UTC
Wind: from the ESE (120 degrees) at 7 MPH (6 KT) (direction variable):0
Visibility: greater than 7 mile(s):0
Sky conditions: mostly clear
Temperature: 89 F (32 C)
Heat index: 98.4 F (36.9 C):1
Dew Point: 75 F (24 C)
Relative Humidity: 62%
Pressure (altimeter): 30.03 in. Hg (1017 hPa)
ob: RJOA 010233Z 12006KT 060V200 9999 FEW030 32/24 Q1017 RMK 1CU030 A3005
cycle: 2

Station Type Date Time Source
RJOA TAF 2022/06/30 18:29 UTC NOAA

TAF RJOA 301705Z 3018/0200 32004KT 9999 FEW025
BECMG 3022/0100 12006KT
BECMG 0109/0112 32005KT
BECMG 0121/0200 10005KT

Example: see airport list